TimeCDT,TemperatureF,Dew PointF,Humidity,Sea Level PressureIn,VisibilityMPH,Wind Direction,Wind SpeedMPH,Gust SpeedMPH,PrecipitationIn,Events,Conditions,WindDirDegrees,DateUTC
12:15 AM,71.6,69.8,94,30.07,5.0,Calm,Calm,-,N/A,,Clear,0,2013-08-23 05:15:00
12:35 AM,71.6,69.8,94,30.07,4.0,Calm,Calm,-,N/A,,Clear,0,2013-08-23 05:35:00
12:55 AM,71.6,69.8,94,30.07,2.0,Calm,Calm,-,N/A,,Clear,0,2013-08-23 05:55:00
1:15 AM,71.6,69.8,94,30.07,3.0,Calm,Calm,-,N/A,,Clear,0,2013-08-23 06:15:00
1:35 AM,69.8,68.0,94,30.06,2.5,Calm,Calm,-,N/A,,Clear,0,2013-08-23 06:35:00
1:55 AM,69.8,68.0,94,30.06,0.2,Calm,Calm,-,N/A,,Unknown,0,2013-08-23 06:55:00
2:15 AM,69.8,69.8,100,30.05,2.0,Calm,Calm,-,N/A,,Clear,0,2013-08-23 07:15:00
2:35 AM,69.8,68.0,94,30.05,3.0,Calm,Calm,-,N/A,,Clear,0,2013-08-23 07:35:00
2:55 AM,69.8,68.0,94,30.06,3.0,North,3.5,-,N/A,,Clear,360,2013-08-23 07:55:00
3:15 AM,71.6,69.8,94,30.06,5.0,Calm,Calm,-,N/A,,Clear,0,2013-08-23 08:15:00
3:35 AM,71.6,68.0,88,30.06,4.0,NNE,6.9,-,N/A,,Clear,20,2013-08-23 08:35:00
3:55 AM,71.6,69.8,94,30.06,7.0,NNE,4.6,-,N/A,,Clear,20,2013-08-23 08:55:00
4:15 AM,71.6,69.8,94,30.08,8.0,North,8.1,-,N/A,,Scattered Clouds,10,2013-08-23 09:15:00
4:35 AM,71.6,68.0,88,30.08,9.0,NNE,8.1,-,N/A,,Partly Cloudy,20,2013-08-23 09:35:00
4:55 AM,71.6,66.2,83,30.08,10.0,NNE,9.2,-,N/A,,Partly Cloudy,20,2013-08-23 09:55:00
5:15 AM,71.6,66.2,83,30.09,10.0,NNE,5.8,-,N/A,,Scattered Clouds,30,2013-08-23 10:15:00
5:35 AM,69.8,66.2,88,30.08,10.0,NNE,5.8,-,N/A,,Partly Cloudy,30,2013-08-23 10:35:00
5:55 AM,71.6,66.2,83,30.10,10.0,NNE,5.8,-,N/A,,Clear,20,2013-08-23 10:55:00
6:15 AM,69.8,66.2,88,30.11,10.0,NNE,5.8,-,N/A,,Clear,20,2013-08-23 11:15:00
6:35 AM,69.8,66.2,88,30.10,10.0,NNE,4.6,-,N/A,,Scattered Clouds,30,2013-08-23 11:35:00
6:55 AM,69.8,66.2,88,30.10,10.0,NE,4.6,-,N/A,,Partly Cloudy,40,2013-08-23 11:55:00
7:15 AM,69.8,66.2,88,30.09,10.0,Calm,Calm,-,N/A,,Partly Cloudy,0,2013-08-23 12:15:00
7:35 AM,71.6,66.2,83,30.10,10.0,Calm,Calm,-,N/A,,Mostly Cloudy,0,2013-08-23 12:35:00
7:55 AM,71.6,68.0,88,30.11,10.0,Calm,Calm,-,N/A,,Overcast,0,2013-08-23 12:55:00
8:15 AM,73.4,68.0,83,30.11,10.0,NE,6.9,-,N/A,,Mostly Cloudy,50,2013-08-23 13:15:00
8:35 AM,75.2,69.8,83,30.11,10.0,NE,4.6,-,N/A,,Partly Cloudy,40,2013-08-23 13:35:00
8:55 AM,75.2,69.8,83,30.11,10.0,NE,4.6,-,N/A,,Clear,50,2013-08-23 13:55:00
9:15 AM,77.0,69.8,78,30.11,10.0,ENE,5.8,-,N/A,,Clear,70,2013-08-23 14:15:00
9:35 AM,78.8,69.8,74,30.12,10.0,NE,5.8,-,N/A,,Clear,40,2013-08-23 14:35:00
9:55 AM,78.8,69.8,74,30.12,10.0,ENE,8.1,-,N/A,,Clear,60,2013-08-23 14:55:00
10:15 AM,80.6,71.6,74,30.12,10.0,NE,9.2,-,N/A,,Clear,50,2013-08-23 15:15:00
10:35 AM,80.6,71.6,74,30.12,10.0,NE,6.9,-,N/A,,Clear,40,2013-08-23 15:35:00
10:55 AM,80.6,69.8,70,30.12,10.0,NNE,8.1,-,N/A,,Clear,30,2013-08-23 15:55:00
11:15 AM,82.4,71.6,70,30.12,10.0,ENE,6.9,-,N/A,,Clear,60,2013-08-23 16:15:00
11:35 AM,82.4,69.8,66,30.12,10.0,NE,6.9,-,N/A,,Clear,50,2013-08-23 16:35:00
11:55 AM,84.2,69.8,62,30.11,9.0,ENE,5.8,-,N/A,,Clear,70,2013-08-23 16:55:00
12:15 PM,84.2,71.6,66,30.11,10.0,East,6.9,-,N/A,,Clear,90,2013-08-23 17:15:00
12:35 PM,86.0,71.6,62,30.11,10.0,East,3.5,-,N/A,,Clear,100,2013-08-23 17:35:00
12:55 PM,84.2,69.8,62,30.10,10.0,NE,5.8,-,N/A,,Partly Cloudy,40,2013-08-23 17:55:00
1:15 PM,86.0,68.0,55,30.10,10.0,NE,5.8,-,N/A,,Clear,40,2013-08-23 18:15:00
1:35 PM,87.8,69.8,55,30.09,10.0,East,3.5,-,N/A,,Clear,100,2013-08-23 18:35:00
1:55 PM,87.8,69.8,55,30.09,10.0,East,8.1,-,N/A,,Clear,80,2013-08-23 18:55:00
2:15 PM,87.8,69.8,55,30.08,7.0,NNE,5.8,-,N/A,,Clear,20,2013-08-23 19:15:00
2:35 PM,87.8,68.0,52,30.08,10.0,NNE,5.8,-,N/A,,Clear,20,2013-08-23 19:35:00
2:55 PM,89.6,69.8,52,30.08,10.0,East,6.9,-,N/A,,Scattered Clouds,90,2013-08-23 19:55:00
3:15 PM,87.8,69.8,55,30.07,10.0,NE,4.6,-,N/A,,Partly Cloudy,50,2013-08-23 20:15:00
3:35 PM,87.8,71.6,58,30.06,10.0,NE,6.9,-,N/A,,Partly Cloudy,40,2013-08-23 20:35:00
3:55 PM,87.8,69.8,55,30.06,10.0,NNE,5.8,-,N/A,,Partly Cloudy,30,2013-08-23 20:55:00
4:15 PM,87.8,69.8,55,30.05,10.0,NNE,6.9,-,N/A,,Partly Cloudy,30,2013-08-23 21:15:00
4:35 PM,87.8,69.8,55,30.06,10.0,NNE,6.9,-,N/A,,Clear,20,2013-08-23 21:35:00
4:55 PM,87.8,68.0,52,30.07,10.0,NE,6.9,-,N/A,,Clear,40,2013-08-23 21:55:00
5:15 PM,87.8,69.8,55,30.07,10.0,NE,5.8,-,N/A,,Clear,40,2013-08-23 22:15:00
5:35 PM,87.8,69.8,55,30.07,10.0,NE,6.9,-,N/A,,Partly Cloudy,40,2013-08-23 22:35:00
5:55 PM,86.0,69.8,58,30.07,10.0,NE,5.8,-,N/A,,Clear,40,2013-08-23 22:55:00
6:15 PM,84.2,69.8,62,30.07,10.0,NE,6.9,-,N/A,,Clear,40,2013-08-23 23:15:00
6:35 PM,84.2,69.8,62,30.07,10.0,NE,5.8,-,N/A,,Partly Cloudy,50,2013-08-23 23:35:00
6:55 PM,82.4,69.8,66,30.07,10.0,NNE,4.6,-,N/A,,Partly Cloudy,30,2013-08-23 23:55:00
7:15 PM,80.6,69.8,70,30.08,10.0,NNE,4.6,-,N/A,,Clear,20,2013-08-24 00:15:00
7:35 PM,80.6,69.8,70,30.08,10.0,NNE,3.5,-,N/A,,Clear,20,2013-08-24 00:35:00
7:55 PM,75.2,69.8,83,30.09,9.0,Calm,Calm,-,N/A,,Clear,0,2013-08-24 00:55:00
8:15 PM,73.4,69.8,88,30.09,10.0,NNE,3.5,-,N/A,,Clear,20,2013-08-24 01:15:00
8:35 PM,73.4,69.8,88,30.10,10.0,North,3.5,-,N/A,,Clear,10,2013-08-24 01:35:00
8:55 PM,73.4,68.0,83,30.11,10.0,Calm,Calm,-,N/A,,Clear,0,2013-08-24 01:55:00
9:15 PM,71.6,68.0,88,30.11,10.0,NNE,3.5,-,N/A,,Clear,20,2013-08-24 02:15:00
9:35 PM,71.6,68.0,88,30.11,10.0,North,4.6,-,N/A,,Clear,360,2013-08-24 02:35:00
9:55 PM,71.6,68.0,88,30.11,10.0,Calm,Calm,-,N/A,,Clear,0,2013-08-24 02:55:00
10:15 PM,69.8,66.2,88,30.12,8.0,Calm,Calm,-,N/A,,Clear,0,2013-08-24 03:15:00
10:35 PM,69.8,66.2,88,30.12,9.0,NNE,3.5,-,N/A,,Clear,20,2013-08-24 03:35:00
10:55 PM,66.2,64.4,94,30.12,5.0,Calm,Calm,-,N/A,,Clear,0,2013-08-24 03:55:00
11:15 PM,68.0,66.2,94,30.12,10.0,NNE,3.5,-,N/A,,Clear,20,2013-08-24 04:15:00
11:35 PM,69.8,66.2,88,30.13,10.0,Calm,Calm,-,N/A,,Clear,0,2013-08-24 04:35:00
11:55 PM,69.8,66.2,88,30.13,10.0,NNE,4.6,-,N/A,,Clear,20,2013-08-24 04:55:00